Time;durP1;ratioP1;P1;durP2;ratioP2;P2;SDS_P1;SDS_P2;PMS_P1;PMS_P2;Temp;Humidity;BMP_temperature;BMP_pressure;BME280_temperature;BME280_humidity;BME280_pressure;Samples;Min_cycle;Max_cycle;Signal;HPM_P1;HPM_P2
2023/04/07 00:01:15;;;;;;;;;;;17.00;65.30;;;;;;5068380;28;977;-69
2023/04/07 00:03:40;;;;;;;;;;;17.00;65.30;;;;;;5071232;28;1222;-69
2023/04/07 00:06:06;;;;;;;;;;;17.00;65.30;;;;;;5071378;28;1216;-69
2023/04/07 00:08:31;;;;;;;;;;;17.00;65.30;;;;;;5071093;28;1909;-70
2023/04/07 00:10:57;;;;;;;;;;;17.00;65.30;;;;;;5071827;28;808;-69
2023/04/07 00:13:22;;;;;;;;;;;17.00;65.30;;;;;;5070321;28;836;-69
2023/04/07 00:15:48;;;;;;;;;;;17.00;65.20;;;;;;5073431;28;1281;-69
2023/04/07 00:18:13;;;;;;;;;;;17.00;65.30;;;;;;5071760;28;840;-69
2023/04/07 00:20:39;;;;;;;;;;;17.00;65.30;;;;;;5074335;28;863;-69
2023/04/07 00:23:04;;;;;;;;;;;16.90;65.20;;;;;;5073680;28;1053;-69
2023/04/07 00:25:30;;;;;;;;;;;17.00;65.30;;;;;;5074106;28;1264;-69
2023/04/07 00:27:55;;;;;;;;;;;17.00;65.30;;;;;;5071563;28;1906;-69
2023/04/07 00:30:21;;;;;;;;;;;17.00;65.30;;;;;;5071515;28;1353;-69
2023/04/07 00:32:46;;;;;;;;;;;17.00;65.30;;;;;;5077060;28;890;-70
2023/04/07 00:35:12;;;;;;;;;;;16.90;65.20;;;;;;5077088;28;1256;-69
2023/04/07 00:37:37;;;;;;;;;;;16.90;65.30;;;;;;5079070;28;1446;-69
2023/04/07 00:40:03;;;;;;;;;;;17.00;65.30;;;;;;5079140;28;1777;-70
2023/04/07 00:42:29;;;;;;;;;;;17.00;65.30;;;;;;5073522;28;1189;-70
2023/04/07 00:44:54;;;;;;;;;;;16.90;65.20;;;;;;5076924;28;1341;-70
2023/04/07 00:47:20;;;;;;;;;;;16.90;65.20;;;;;;5075446;28;823;-70
2023/04/07 00:49:45;;;;;;;;;;;17.00;65.30;;;;;;5068368;28;1902;-69
2023/04/07 00:52:11;;;;;;;;;;;17.00;65.30;;;;;;5072637;28;874;-69
2023/04/07 00:54:37;;;;;;;;;;;16.90;65.20;;;;;;5074406;28;1258;-70
2023/04/07 00:57:02;;;;;;;;;;;16.90;65.20;;;;;;5072539;28;1702;-69
2023/04/07 00:59:30;;;;;;;;;;;16.90;65.20;;;;;;5073210;28;950;-71
2023/04/07 01:02:02;;;;;;;;;;;16.90;65.20;;;;;;5073088;28;1539;-71
2023/04/07 01:04:31;;;;;;;;;;;17.00;65.30;;;;;;5072210;28;1423;-71
2023/04/07 01:07:00;;;;;;;;;;;17.00;65.30;;;;;;5072747;28;1527;-70
2023/04/07 01:09:28;;;;;;;;;;;17.00;65.30;;;;;;5069764;28;1894;-72
2023/04/07 01:11:56;;;;;;;;;;;16.90;65.20;;;;;;5072134;28;1473;-72
2023/04/07 01:14:22;;;;;;;;;;;17.00;65.30;;;;;;5070764;28;1282;-72
2023/04/07 01:16:51;;;;;;;;;;;16.90;65.20;;;;;;5072513;28;1454;-71
2023/04/07 01:19:22;;;;;;;;;;;16.90;65.20;;;;;;5071227;28;1537;-71
2023/04/07 01:21:48;;;;;;;;;;;17.00;65.30;;;;;;5072450;28;1328;-71
2023/04/07 01:24:31;;;;;;;;;;;16.90;65.20;;;;;;5068931;28;1350;-71
2023/04/07 01:27:07;;;;;;;;;;;16.90;65.30;;;;;;5073314;28;1385;-70
2023/04/07 01:29:36;;;;;;;;;;;16.90;65.30;;;;;;5057442;28;1983;-70
2023/04/07 01:32:03;;;;;;;;;;;16.90;65.30;;;;;;5070643;28;1006;-71
2023/04/07 01:34:29;;;;;;;;;;;16.90;65.30;;;;;;5069341;28;867;-70
2023/04/07 01:36:54;;;;;;;;;;;16.90;65.30;;;;;;5070422;28;1401;-70
2023/04/07 01:39:20;;;;;;;;;;;16.90;65.20;;;;;;5071499;28;883;-70
2023/04/07 01:41:46;;;;;;;;;;;16.90;65.30;;;;;;5073262;28;790;-71
2023/04/07 01:44:11;;;;;;;;;;;16.90;65.30;;;;;;5070921;28;990;-70
2023/04/07 01:46:37;;;;;;;;;;;16.90;65.30;;;;;;5070300;28;1274;-70
2023/04/07 01:49:02;;;;;;;;;;;16.90;65.30;;;;;;5071045;28;1886;-70
2023/04/07 01:51:28;;;;;;;;;;;16.90;65.30;;;;;;5073057;28;1429;-71
2023/04/07 01:53:53;;;;;;;;;;;16.90;65.30;;;;;;5071401;28;1025;-71
2023/04/07 01:56:19;;;;;;;;;;;16.90;65.30;;;;;;5072782;28;1251;-71
2023/04/07 01:58:45;;;;;;;;;;;16.90;65.30;;;;;;5078429;28;802;-71
2023/04/07 02:01:10;;;;;;;;;;;16.90;65.30;;;;;;5071193;28;891;-71
2023/04/07 02:03:42;;;;;;;;;;;16.90;65.30;;;;;;5060697;28;863;-71
2023/04/07 02:06:07;;;;;;;;;;;16.90;65.30;;;;;;5074102;28;1267;-72
2023/04/07 02:08:33;;;;;;;;;;;16.90;65.40;;;;;;5076853;28;1910;-71
2023/04/07 02:10:58;;;;;;;;;;;16.90;65.30;;;;;;5074452;28;1377;-71
2023/04/07 02:13:24;;;;;;;;;;;16.90;65.30;;;;;;5075454;28;867;-69
2023/04/07 02:15:49;;;;;;;;;;;16.90;65.30;;;;;;5077256;28;1260;-69
2023/04/07 02:18:15;;;;;;;;;;;16.90;65.30;;;;;;5075522;28;823;-69
2023/04/07 02:20:41;;;;;;;;;;;16.90;65.30;;;;;;5076290;28;874;-70
2023/04/07 02:23:07;;;;;;;;;;;16.90;65.30;;;;;;5079199;28;942;-70
2023/04/07 02:25:33;;;;;;;;;;;16.90;65.40;;;;;;5076247;28;1310;-70
2023/04/07 02:27:58;;;;;;;;;;;16.90;65.30;;;;;;5070740;28;1961;-70
2023/04/07 02:30:24;;;;;;;;;;;16.90;65.30;;;;;;5064538;28;830;-69
2023/04/07 02:32:50;;;;;;;;;;;16.90;65.30;;;;;;5075961;28;830;-69
2023/04/07 02:35:16;;;;;;;;;;;16.90;65.30;;;;;;5075868;28;1337;-70
2023/04/07 02:37:41;;;;;;;;;;;16.90;65.30;;;;;;5076466;28;1437;-70
2023/04/07 02:40:07;;;;;;;;;;;16.90;65.40;;;;;;5076223;28;848;-70
2023/04/07 02:42:33;;;;;;;;;;;16.90;65.30;;;;;;5077956;28;1060;-70
2023/04/07 02:44:58;;;;;;;;;;;16.90;65.40;;;;;;5060768;28;1260;-69
2023/04/07 02:47:24;;;;;;;;;;;16.90;65.40;;;;;;5075259;28;950;-70
2023/04/07 02:49:49;;;;;;;;;;;16.90;65.30;;;;;;5071382;28;1975;-69
2023/04/07 02:52:15;;;;;;;;;;;16.90;65.30;;;;;;5072551;28;871;-69
2023/04/07 02:54:40;;;;;;;;;;;16.90;65.40;;;;;;5072708;28;884;-70
2023/04/07 02:57:06;;;;;;;;;;;16.90;65.40;;;;;;5069442;28;848;-70
2023/04/07 02:59:31;;;;;;;;;;;16.90;65.40;;;;;;5075968;28;1390;-70
2023/04/07 03:01:56;;;;;;;;;;;16.90;65.40;;;;;;5073691;28;1210;-70
2023/04/07 03:04:22;;;;;;;;;;;16.90;65.40;;;;;;5074844;28;935;-70
2023/04/07 03:06:47;;;;;;;;;;;16.90;65.40;;;;;;5074317;28;1247;-70
2023/04/07 03:09:13;;;;;;;;;;;16.90;65.40;;;;;;5075932;28;1987;-70
2023/04/07 03:11:38;;;;;;;;;;;16.90;65.40;;;;;;5072899;28;1202;-70
2023/04/07 03:14:04;;;;;;;;;;;16.90;65.40;;;;;;5077180;28;764;-71
2023/04/07 03:16:29;;;;;;;;;;;16.90;65.40;;;;;;5076451;28;1262;-70
2023/04/07 03:18:55;;;;;;;;;;;16.90;65.40;;;;;;5075295;28;1254;-71
2023/04/07 03:21:21;;;;;;;;;;;16.90;65.40;;;;;;5075020;28;1649;-70
2023/04/07 03:23:46;;;;;;;;;;;16.90;65.40;;;;;;5078433;28;835;-70
2023/04/07 03:26:11;;;;;;;;;;;16.90;65.40;;;;;;5073738;28;1341;-71
2023/04/07 03:28:37;;;;;;;;;;;16.90;65.40;;;;;;5074609;28;1951;-71
2023/04/07 03:31:02;;;;;;;;;;;16.90;65.40;;;;;;5072912;28;779;-71
2023/04/07 03:33:28;;;;;;;;;;;16.90;65.40;;;;;;5070318;28;835;-70
2023/04/07 03:35:53;;;;;;;;;;;16.90;65.40;;;;;;5071388;28;1266;-69
2023/04/07 03:38:20;;;;;;;;;;;16.90;65.50;;;;;;5070040;28;958;-69
2023/04/07 03:40:45;;;;;;;;;;;16.90;65.40;;;;;;5072230;28;833;-69
2023/04/07 03:43:14;;;;;;;;;;;16.90;65.40;;;;;;5074847;28;1069;-71
2023/04/07 03:45:39;;;;;;;;;;;16.90;65.40;;;;;;5072428;28;1284;-71
2023/04/07 03:48:09;;;;;;;;;;;16.90;65.40;;;;;;5076162;28;1910;-69
2023/04/07 03:50:35;;;;;;;;;;;16.90;65.50;;;;;;5073729;28;875;-69
2023/04/07 03:53:00;;;;;;;;;;;16.90;65.40;;;;;;5074887;28;796;-70
2023/04/07 03:55:26;;;;;;;;;;;16.90;65.40;;;;;;5076727;28;1252;-70
2023/04/07 03:57:51;;;;;;;;;;;16.90;65.40;;;;;;5061070;28;892;-71
2023/04/07 04:00:17;;;;;;;;;;;16.90;65.50;;;;;;5069519;28;1004;-72
2023/04/07 04:02:42;;;;;;;;;;;16.90;65.40;;;;;;5057718;28;946;-72
2023/04/07 04:05:08;;;;;;;;;;;16.90;65.40;;;;;;5071809;28;1274;-71
2023/04/07 04:07:34;;;;;;;;;;;16.90;65.40;;;;;;5070085;28;1156;-72
2023/04/07 04:10:00;;;;;;;;;;;16.90;65.40;;;;;;5073309;28;1915;-72
2023/04/07 04:12:26;;;;;;;;;;;16.90;65.40;;;;;;5072548;28;878;-72
2023/04/07 04:14:51;;;;;;;;;;;16.90;65.30;;;;;;5078619;28;1324;-72
2023/04/07 04:17:17;;;;;;;;;;;16.90;65.20;;;;;;5068380;28;820;-71
2023/04/07 04:19:42;;;;;;;;;;;17.00;65.10;;;;;;5069404;28;1077;-72
2023/04/07 04:22:08;;;;;;;;;;;17.00;65.00;;;;;;5070755;28;1220;-72
2023/04/07 04:24:33;;;;;;;;;;;17.00;64.90;;;;;;5055888;28;1336;-71
2023/04/07 04:27:00;;;;;;;;;;;17.10;64.80;;;;;;5070246;28;1267;-70
2023/04/07 04:29:26;;;;;;;;;;;17.10;64.60;;;;;;5075601;28;1893;-70
2023/04/07 04:31:51;;;;;;;;;;;17.10;64.50;;;;;;5068927;28;792;-69
2023/04/07 04:34:17;;;;;;;;;;;17.20;64.40;;;;;;5071337;28;1195;-69
2023/04/07 04:36:42;;;;;;;;;;;17.20;64.30;;;;;;5073264;28;1348;-69
2023/04/07 04:39:08;;;;;;;;;;;17.30;64.30;;;;;;5073657;28;811;-69
2023/04/07 04:41:33;;;;;;;;;;;17.30;64.10;;;;;;5072183;28;867;-69
2023/04/07 04:43:59;;;;;;;;;;;17.30;64.00;;;;;;5069523;28;993;-70
2023/04/07 04:46:25;;;;;;;;;;;17.30;64.00;;;;;;5068961;28;1362;-70
2023/04/07 04:48:51;;;;;;;;;;;17.30;63.80;;;;;;5071436;28;1906;-69
2023/04/07 04:51:17;;;;;;;;;;;17.40;63.80;;;;;;5073169;28;924;-70
2023/04/07 04:53:42;;;;;;;;;;;17.40;63.80;;;;;;5070686;28;982;-70
2023/04/07 04:56:07;;;;;;;;;;;17.40;63.80;;;;;;5068452;28;1250;-69
2023/04/07 04:58:33;;;;;;;;;;;17.40;63.70;;;;;;5070484;28;870;-69
2023/04/07 05:00:59;;;;;;;;;;;17.40;63.70;;;;;;5076760;28;1184;-71
2023/04/07 05:03:25;;;;;;;;;;;17.40;63.60;;;;;;5075915;28;800;-72
2023/04/07 05:05:51;;;;;;;;;;;17.40;63.60;;;;;;5071072;28;1314;-70
2023/04/07 05:08:16;;;;;;;;;;;17.40;63.60;;;;;;5072694;28;2000;-70
2023/04/07 05:10:42;;;;;;;;;;;17.40;63.60;;;;;;5073115;28;1675;-70
2023/04/07 05:13:07;;;;;;;;;;;17.40;63.60;;;;;;5075300;28;800;-70
2023/04/07 05:15:33;;;;;;;;;;;17.40;63.50;;;;;;5053683;28;1410;-71
2023/04/07 05:17:58;;;;;;;;;;;17.40;63.50;;;;;;5069372;28;1153;-71
2023/04/07 05:20:24;;;;;;;;;;;17.50;63.60;;;;;;5072547;28;994;-71
2023/04/07 05:22:49;;;;;;;;;;;17.40;63.40;;;;;;5073298;28;951;-71
2023/04/07 05:25:15;;;;;;;;;;;17.40;63.40;;;;;;5073059;28;1369;-70
2023/04/07 05:27:40;;;;;;;;;;;17.50;63.50;;;;;;5074196;28;760;-70
2023/04/07 05:30:06;;;;;;;;;;;17.50;63.40;;;;;;5073430;28;1889;-71
2023/04/07 05:32:32;;;;;;;;;;;17.50;63.30;;;;;;5074217;28;1198;-71
2023/04/07 05:34:57;;;;;;;;;;;17.50;63.30;;;;;;5078808;28;1288;-69
2023/04/07 05:37:22;;;;;;;;;;;17.50;63.30;;;;;;5072907;28;1407;-69
2023/04/07 05:39:48;;;;;;;;;;;17.50;63.30;;;;;;5078580;28;1077;-69
2023/04/07 05:42:13;;;;;;;;;;;17.50;63.30;;;;;;5075140;28;803;-69
2023/04/07 05:44:39;;;;;;;;;;;17.50;63.20;;;;;;5073647;28;1348;-69
2023/04/07 05:47:07;;;;;;;;;;;17.50;63.20;;;;;;5071317;28;1300;-69
2023/04/07 05:49:33;;;;;;;;;;;17.50;63.20;;;;;;5070952;28;1894;-69
2023/04/07 05:51:59;;;;;;;;;;;17.50;64.00;;;;;;5071588;28;899;-70
2023/04/07 05:54:25;;;;;;;;;;;17.50;63.20;;;;;;5066045;28;886;-69
2023/04/07 05:56:50;;;;;;;;;;;17.50;63.20;;;;;;5073571;28;1250;-69
2023/04/07 05:59:16;;;;;;;;;;;17.50;63.20;;;;;;5076590;28;2077;-69
2023/04/07 06:01:41;;;;;;;;;;;17.50;63.20;;;;;;5071436;28;1899;-69
2023/04/07 06:04:07;;;;;;;;;;;17.50;63.20;;;;;;5074131;28;1419;-69
2023/04/07 06:06:32;;;;;;;;;;;17.50;63.20;;;;;;5072253;28;1380;-70
2023/04/07 06:08:58;;;;;;;;;;;17.50;63.20;;;;;;5066310;28;2100;-71
2023/04/07 06:11:24;;;;;;;;;;;17.50;63.20;;;;;;5070363;28;1113;-70
2023/04/07 06:13:49;;;;;;;;;;;17.50;63.20;;;;;;5069382;28;1343;-71
2023/04/07 06:16:15;;;;;;;;;;;17.50;63.30;;;;;;5069155;28;1547;-70
2023/04/07 06:18:41;;;;;;;;;;;17.50;63.30;;;;;;5071514;28;840;-69
2023/04/07 06:21:06;;;;;;;;;;;17.50;63.30;;;;;;5069572;28;821;-69
2023/04/07 06:23:31;;;;;;;;;;;17.50;63.30;;;;;;5068709;28;1403;-71
2023/04/07 06:25:57;;;;;;;;;;;17.50;63.30;;;;;;5068425;28;1284;-71
2023/04/07 06:28:22;;;;;;;;;;;17.50;63.30;;;;;;5075365;28;1989;-70
2023/04/07 06:30:48;;;;;;;;;;;17.50;63.30;;;;;;5071936;28;1363;-70
2023/04/07 06:33:13;;;;;;;;;;;17.50;63.40;;;;;;5073754;28;874;-70
2023/04/07 06:35:39;;;;;;;;;;;17.50;63.40;;;;;;5075887;28;1282;-70
2023/04/07 06:38:05;;;;;;;;;;;17.50;63.50;;;;;;5053595;28;1597;-71
2023/04/07 06:40:30;;;;;;;;;;;17.50;63.40;;;;;;5072940;28;798;-71
2023/04/07 06:42:56;;;;;;;;;;;17.50;63.50;;;;;;5072652;28;856;-71
2023/04/07 06:45:21;;;;;;;;;;;17.50;63.50;;;;;;5072476;28;1259;-70
2023/04/07 06:47:47;;;;;;;;;;;17.40;63.40;;;;;;5075449;28;815;-69
2023/04/07 06:50:12;;;;;;;;;;;17.40;63.50;;;;;;5073990;28;2016;-69
2023/04/07 06:52:37;;;;;;;;;;;17.40;63.50;;;;;;5072951;28;1283;-69
2023/04/07 06:55:03;;;;;;;;;;;17.40;63.60;;;;;;5071955;28;1407;-70
2023/04/07 06:57:29;;;;;;;;;;;17.40;63.50;;;;;;5072014;28;1526;-70
2023/04/07 06:59:54;;;;;;;;;;;17.40;63.50;;;;;;5068579;28;2163;-68
2023/04/07 07:02:19;;;;;;;;;;;17.40;63.60;;;;;;5076179;28;2196;-67
2023/04/07 07:04:45;;;;;;;;;;;17.40;63.60;;;;;;5071523;28;2112;-67
2023/04/07 07:07:11;;;;;;;;;;;17.40;63.60;;;;;;5074457;28;1468;-68
2023/04/07 07:09:36;;;;;;;;;;;17.40;63.60;;;;;;5075461;28;1910;-67
2023/04/07 07:12:02;;;;;;;;;;;17.40;63.70;;;;;;5073861;28;1231;-67
2023/04/07 07:14:27;;;;;;;;;;;17.40;63.70;;;;;;5076549;28;883;-67
2023/04/07 07:16:53;;;;;;;;;;;17.40;63.60;;;;;;5080501;28;1259;-69
2023/04/07 07:19:18;;;;;;;;;;;17.40;63.70;;;;;;5067081;28;871;-69
2023/04/07 07:21:44;;;;;;;;;;;17.40;63.60;;;;;;5073357;28;1242;-69
2023/04/07 07:24:09;;;;;;;;;;;17.40;63.60;;;;;;5072319;28;796;-69
2023/04/07 07:26:35;;;;;;;;;;;17.40;63.60;;;;;;5070785;28;1203;-69
2023/04/07 07:29:00;;;;;;;;;;;17.40;63.60;;;;;;5076551;28;1905;-69
2023/04/07 07:31:26;;;;;;;;;;;17.40;63.50;;;;;;5075307;28;844;-69
2023/04/07 07:33:51;;;;;;;;;;;17.40;63.50;;;;;;5076862;28;836;-69
2023/04/07 07:36:17;;;;;;;;;;;17.50;63.50;;;;;;5076448;28;1268;-70
2023/04/07 07:38:42;;;;;;;;;;;17.50;63.50;;;;;;5073397;28;2031;-70
2023/04/07 07:41:08;;;;;;;;;;;17.50;63.50;;;;;;5072170;28;1221;-69
2023/04/07 07:43:33;;;;;;;;;;;17.50;63.40;;;;;;5071820;28;1315;-69
2023/04/07 07:45:59;;;;;;;;;;;17.50;63.40;;;;;;5072031;28;1273;-69
2023/04/07 07:48:24;;;;;;;;;;;17.50;63.40;;;;;;5071247;28;1930;-69
2023/04/07 07:50:51;;;;;;;;;;;17.50;63.30;;;;;;5074442;28;880;-70
2023/04/07 07:53:16;;;;;;;;;;;17.50;63.30;;;;;;5079765;28;965;-69
2023/04/07 07:55:42;;;;;;;;;;;17.50;63.30;;;;;;5080002;28;2207;-70
2023/04/07 07:58:08;;;;;;;;;;;17.50;63.20;;;;;;5074169;28;1278;-70
2023/04/07 08:00:34;;;;;;;;;;;17.50;63.20;;;;;;5076293;28;1375;-70
2023/04/07 08:02:59;;;;;;;;;;;17.50;63.20;;;;;;5075893;28;1719;-70
2023/04/07 08:05:25;;;;;;;;;;;17.60;63.30;;;;;;5074618;28;1249;-69
2023/04/07 08:07:51;;;;;;;;;;;17.60;63.20;;;;;;5073428;28;846;-69
2023/04/07 08:10:18;;;;;;;;;;;17.60;63.20;;;;;;5073740;28;2047;-69
2023/04/07 08:12:44;;;;;;;;;;;17.60;63.20;;;;;;5075063;28;903;-69
2023/04/07 08:15:10;;;;;;;;;;;17.60;63.20;;;;;;5071334;28;1246;-70
2023/04/07 08:17:35;;;;;;;;;;;17.60;63.20;;;;;;5074688;28;894;-69
2023/04/07 08:20:02;;;;;;;;;;;17.60;63.20;;;;;;5073000;28;875;-69
2023/04/07 08:22:27;;;;;;;;;;;17.60;63.20;;;;;;5071921;28;963;-69
2023/04/07 08:24:53;;;;;;;;;;;17.60;63.10;;;;;;5074412;28;1350;-69
2023/04/07 08:27:20;;;;;;;;;;;17.60;63.10;;;;;;5072824;28;872;-69
2023/04/07 08:29:47;;;;;;;;;;;17.60;63.10;;;;;;5071568;28;1902;-69
2023/04/07 08:32:13;;;;;;;;;;;17.60;63.10;;;;;;5070285;28;946;-69
2023/04/07 08:34:38;;;;;;;;;;;17.60;63.10;;;;;;5072542;28;858;-69
2023/04/07 08:37:04;;;;;;;;;;;17.60;63.10;;;;;;5075050;28;1381;-67
2023/04/07 08:39:29;;;;;;;;;;;17.60;63.20;;;;;;5075728;28;1315;-67
2023/04/07 08:41:56;;;;;;;;;;;17.60;63.10;;;;;;5073481;28;1010;-70
2023/04/07 08:44:21;;;;;;;;;;;17.60;63.10;;;;;;5069670;28;844;-69
2023/04/07 08:46:48;;;;;;;;;;;17.60;63.10;;;;;;5073936;28;1242;-69
2023/04/07 08:49:13;;;;;;;;;;;17.60;63.20;;;;;;5068023;28;1910;-71
2023/04/07 08:51:43;;;;;;;;;;;17.60;63.10;;;;;;5075478;28;925;-70
2023/04/07 08:54:09;;;;;;;;;;;17.60;63.10;;;;;;5076521;28;1666;-69
2023/04/07 08:56:35;;;;;;;;;;;17.60;63.90;;;;;;5072457;28;1676;-69
2023/04/07 08:59:01;;;;;;;;;;;17.60;63.10;;;;;;5072280;28;2068;-68
2023/04/07 09:01:27;;;;;;;;;;;17.60;63.20;;;;;;5072699;28;1577;-69
2023/04/07 09:03:52;;;;;;;;;;;17.60;63.90;;;;;;5073623;28;1443;-70
2023/04/07 09:06:18;;;;;;;;;;;17.60;63.10;;;;;;5070264;28;2215;-67
2023/04/07 09:08:43;;;;;;;;;;;17.60;63.20;;;;;;5069971;28;2491;-68
2023/04/07 09:11:09;;;;;;;;;;;17.60;63.10;;;;;;5074174;28;1239;-73
2023/04/07 09:13:34;;;;;;;;;;;17.60;63.20;;;;;;5073908;28;1255;-73
2023/04/07 09:16:00;;;;;;;;;;;17.60;63.20;;;;;;5071374;28;1395;-71
2023/04/07 09:18:26;;;;;;;;;;;17.60;63.20;;;;;;5071259;28;952;-71
2023/04/07 09:20:58;;;;;;;;;;;17.60;63.20;;;;;;5072189;28;838;-71
2023/04/07 09:23:42;;;;;;;;;;;17.50;63.10;;;;;;5072124;28;1320;-70
2023/04/07 09:26:16;;;;;;;;;;;17.60;63.20;;;;;;5071543;28;2270;-69
2023/04/07 09:28:42;;;;;;;;;;;17.60;63.20;;;;;;5075367;28;1890;-69
2023/04/07 09:31:09;;;;;;;;;;;17.60;63.20;;;;;;5074699;28;1329;-69
2023/04/07 09:33:35;;;;;;;;;;;17.60;63.30;;;;;;5069954;28;2004;-69
2023/04/07 09:36:01;;;;;;;;;;;17.60;63.30;;;;;;5071167;28;1327;-69
2023/04/07 09:38:33;;;;;;;;;;;17.50;63.20;;;;;;5071788;28;1182;-69
2023/04/07 09:41:08;;;;;;;;;;;17.50;63.30;;;;;;5073210;28;824;-69
2023/04/07 09:43:37;;;;;;;;;;;17.50;63.30;;;;;;5075101;28;839;-69
2023/04/07 09:46:09;;;;;;;;;;;17.50;63.30;;;;;;5054263;28;2260;-69
2023/04/07 09:48:35;;;;;;;;;;;17.50;63.30;;;;;;5072744;28;1977;-70
2023/04/07 09:51:04;;;;;;;;;;;17.50;63.30;;;;;;5074703;28;1238;-69
2023/04/07 09:53:41;;;;;;;;;;;17.50;63.40;;;;;;5059756;28;828;-69
2023/04/07 09:56:08;;;;;;;;;;;17.50;63.40;;;;;;5068419;28;1381;-69
2023/04/07 09:58:33;;;;;;;;;;;17.50;64.20;;;;;;5055603;28;867;-68
2023/04/07 10:01:00;;;;;;;;;;;17.50;63.50;;;;;;5071356;28;1653;-69
2023/04/07 10:03:25;;;;;;;;;;;17.50;63.50;;;;;;5072242;28;864;-69
2023/04/07 10:05:51;;;;;;;;;;;17.50;64.30;;;;;;5070231;28;1294;-69
2023/04/07 10:08:16;;;;;;;;;;;17.50;63.60;;;;;;5076469;28;1973;-69
2023/04/07 10:10:42;;;;;;;;;;;17.50;63.60;;;;;;5070792;28;1411;-69
2023/04/07 10:13:08;;;;;;;;;;;17.50;63.60;;;;;;5068402;28;911;-69
2023/04/07 10:15:33;;;;;;;;;;;17.40;63.60;;;;;;5066244;28;1377;-68
2023/04/07 10:17:59;;;;;;;;;;;17.40;63.60;;;;;;5068042;28;1296;-69
2023/04/07 10:20:25;;;;;;;;;;;17.40;63.70;;;;;;5077117;28;800;-70
2023/04/07 10:22:50;;;;;;;;;;;17.40;63.70;;;;;;5074427;28;1351;-69
2023/04/07 10:25:17;;;;;;;;;;;17.40;63.70;;;;;;5060231;28;1326;-70
2023/04/07 10:27:50;;;;;;;;;;;17.40;63.70;;;;;;5077049;28;963;-69
2023/04/07 10:30:17;;;;;;;;;;;17.40;63.80;;;;;;5074408;28;1957;-69
2023/04/07 10:32:50;;;;;;;;;;;17.40;63.80;;;;;;5080189;28;923;-69
2023/04/07 10:35:16;;;;;;;;;;;17.40;63.80;;;;;;5077260;28;1247;-69
2023/04/07 10:37:49;;;;;;;;;;;17.40;63.90;;;;;;5078106;28;921;-69
2023/04/07 10:40:18;;;;;;;;;;;17.40;63.90;;;;;;5075748;28;1407;-69
2023/04/07 10:42:44;;;;;;;;;;;17.40;64.00;;;;;;5074439;28;1325;-69
2023/04/07 10:45:11;;;;;;;;;;;17.40;64.00;;;;;;5062895;28;1706;-69
2023/04/07 10:47:57;;;;;;;;;;;17.40;64.00;;;;;;5077284;28;871;-70
2023/04/07 10:50:23;;;;;;;;;;;17.30;64.00;;;;;;5063601;28;1957;-69
2023/04/07 10:52:48;;;;;;;;;;;17.40;64.40;;;;;;5075049;28;864;-69
2023/04/07 10:55:31;;;;;;;;;;;17.40;64.20;;;;;;5072739;28;1371;-69
2023/04/07 10:58:15;;;;;;;;;;;17.40;64.00;;;;;;5072123;28;836;-69
2023/04/07 11:00:41;;;;;;;;;;;17.40;64.00;;;;;;5072297;28;850;-69
2023/04/07 11:03:13;;;;;;;;;;;17.40;64.00;;;;;;5074049;28;981;-69
2023/04/07 11:05:39;;;;;;;;;;;17.40;64.10;;;;;;5070872;28;2082;-69
2023/04/07 11:08:06;;;;;;;;;;;17.40;64.10;;;;;;5063060;28;1477;-69
2023/04/07 11:10:32;;;;;;;;;;;17.40;64.10;;;;;;5060589;28;1914;-70
2023/04/07 11:13:01;;;;;;;;;;;17.40;64.20;;;;;;5070038;28;1539;-70
2023/04/07 11:15:27;;;;;;;;;;;17.40;64.20;;;;;;5075683;28;1286;-70
2023/04/07 11:18:12;;;;;;;;;;;17.30;64.20;;;;;;5062378;28;801;-70
2023/04/07 11:20:39;;;;;;;;;;;17.30;64.30;;;;;;5062045;28;1275;-67
2023/04/07 11:23:05;;;;;;;;;;;17.30;64.30;;;;;;5074847;28;1246;-66
2023/04/07 11:25:32;;;;;;;;;;;17.30;64.30;;;;;;5073901;28;1274;-67
2023/04/07 11:27:58;;;;;;;;;;;17.30;64.40;;;;;;5078669;28;911;-68
2023/04/07 11:30:23;;;;;;;;;;;17.30;64.40;;;;;;5077825;28;1906;-68
2023/04/07 11:32:49;;;;;;;;;;;17.30;64.40;;;;;;5075869;28;916;-68
2023/04/07 11:35:15;;;;;;;;;;;17.30;64.50;;;;;;5059768;28;1362;-68
2023/04/07 11:37:41;;;;;;;;;;;17.30;64.50;;;;;;5075200;28;1066;-67
2023/04/07 11:40:07;;;;;;;;;;;17.30;64.50;;;;;;5074625;28;1303;-67
2023/04/07 11:42:38;;;;;;;;;;;17.20;64.50;;;;;;5068783;28;1316;-67
2023/04/07 11:45:05;;;;;;;;;;;17.20;64.50;;;;;;5073209;28;1421;-66
2023/04/07 11:47:34;;;;;;;;;;;17.20;64.50;;;;;;5075260;28;1340;-67
2023/04/07 11:50:00;;;;;;;;;;;17.30;64.60;;;;;;5076822;28;1966;-67
2023/04/07 11:52:25;;;;;;;;;;;17.20;64.60;;;;;;5075982;28;1196;-66
2023/04/07 11:54:51;;;;;;;;;;;17.20;64.60;;;;;;5068789;28;1298;-67
2023/04/07 11:57:27;;;;;;;;;;;17.20;64.70;;;;;;5072568;28;791;-67
2023/04/07 12:00:08;;;;;;;;;;;17.20;64.70;;;;;;5076447;28;1687;-67
2023/04/07 12:02:33;;;;;;;;;;;17.20;64.70;;;;;;5073189;28;891;-67
2023/04/07 12:04:59;;;;;;;;;;;17.20;64.70;;;;;;5076538;28;1365;-67
2023/04/07 12:07:25;;;;;;;;;;;17.20;64.70;;;;;;5074081;28;910;-67
2023/04/07 12:09:52;;;;;;;;;;;17.20;64.80;;;;;;5072906;28;1969;-67
2023/04/07 12:12:23;;;;;;;;;;;17.20;64.80;;;;;;5070432;28;946;-67
2023/04/07 12:14:49;;;;;;;;;;;17.20;64.80;;;;;;5073850;28;1382;-67
2023/04/07 12:17:20;;;;;;;;;;;17.20;64.90;;;;;;5077285;28;1783;-67
2023/04/07 12:19:46;;;;;;;;;;;17.20;64.90;;;;;;5065186;28;877;-67
2023/04/07 12:22:11;;;;;;;;;;;17.20;64.90;;;;;;5068032;28;1274;-67
2023/04/07 12:24:37;;;;;;;;;;;17.20;64.90;;;;;;5075036;28;790;-67
2023/04/07 12:27:03;;;;;;;;;;;17.20;64.90;;;;;;5070187;28;1222;-67
2023/04/07 12:29:28;;;;;;;;;;;17.10;64.80;;;;;;5069082;28;1893;-67
2023/04/07 12:31:55;;;;;;;;;;;17.10;64.90;;;;;;5072715;28;1163;-68
2023/04/07 12:34:20;;;;;;;;;;;17.10;64.90;;;;;;5074499;28;1450;-69
2023/04/07 12:36:46;;;;;;;;;;;17.10;64.90;;;;;;5072053;28;1567;-69
2023/04/07 12:39:11;;;;;;;;;;;17.10;64.90;;;;;;5068938;28;1406;-69
2023/04/07 12:41:37;;;;;;;;;;;17.10;64.90;;;;;;5073880;28;1414;-68
2023/04/07 12:44:03;;;;;;;;;;;17.10;65.00;;;;;;5070903;28;1319;-69
2023/04/07 12:46:28;;;;;;;;;;;17.10;65.00;;;;;;5072014;28;1321;-68
2023/04/07 12:48:53;;;;;;;;;;;17.10;65.00;;;;;;5074268;28;1973;-70
2023/04/07 12:51:19;;;;;;;;;;;17.10;65.00;;;;;;5070888;28;1283;-68
2023/04/07 12:53:46;;;;;;;;;;;17.10;64.90;;;;;;5074602;28;1234;-69
2023/04/07 12:56:12;;;;;;;;;;;17.20;64.90;;;;;;5073539;28;1650;-68
2023/04/07 12:58:37;;;;;;;;;;;17.20;64.90;;;;;;5068111;28;1174;-67
2023/04/07 13:01:03;;;;;;;;;;;17.20;64.80;;;;;;5070813;28;1397;-68
2023/04/07 13:03:28;;;;;;;;;;;17.20;64.70;;;;;;5068989;28;1513;-67
2023/04/07 13:05:54;;;;;;;;;;;17.20;64.50;;;;;;5074227;28;1371;-67
2023/04/07 13:08:20;;;;;;;;;;;17.30;64.50;;;;;;5073597;28;1921;-68
2023/04/07 13:10:47;;;;;;;;;;;17.30;64.40;;;;;;5073667;28;1125;-68
2023/04/07 13:13:12;;;;;;;;;;;17.30;64.30;;;;;;5073820;28;875;-68
2023/04/07 13:15:38;;;;;;;;;;;17.30;64.20;;;;;;5072334;28;1453;-68
2023/04/07 13:18:03;;;;;;;;;;;17.40;64.20;;;;;;5071989;28;1069;-68
2023/04/07 13:20:29;;;;;;;;;;;17.40;64.10;;;;;;5073261;28;847;-68
2023/04/07 13:22:54;;;;;;;;;;;17.40;64.00;;;;;;5069313;28;1305;-68
2023/04/07 13:25:20;;;;;;;;;;;17.40;64.20;;;;;;5075516;28;1317;-68
2023/04/07 13:27:46;;;;;;;;;;;17.40;63.80;;;;;;5073210;28;871;-67
2023/04/07 13:30:12;;;;;;;;;;;17.40;63.80;;;;;;5074758;28;1949;-68
2023/04/07 13:32:37;;;;;;;;;;;17.50;63.80;;;;;;5076540;28;1294;-69
2023/04/07 13:35:03;;;;;;;;;;;17.50;63.70;;;;;;5075974;28;1265;-69
2023/04/07 13:37:28;;;;;;;;;;;17.50;63.60;;;;;;5071863;28;1446;-67
2023/04/07 13:39:54;;;;;;;;;;;17.50;63.60;;;;;;5071754;28;907;-67
2023/04/07 13:42:20;;;;;;;;;;;17.50;63.60;;;;;;5069224;28;826;-67
2023/04/07 13:44:46;;;;;;;;;;;17.50;63.50;;;;;;5072228;28;1278;-67
2023/04/07 13:47:18;;;;;;;;;;;17.50;63.50;;;;;;5070364;28;886;-67
2023/04/07 13:49:44;;;;;;;;;;;17.60;63.50;;;;;;5071554;28;1974;-67
2023/04/07 13:52:09;;;;;;;;;;;17.50;63.40;;;;;;5071659;28;831;-67
2023/04/07 13:54:35;;;;;;;;;;;17.50;63.40;;;;;;5078849;28;899;-68
2023/04/07 13:57:00;;;;;;;;;;;17.60;63.40;;;;;;5070464;28;1187;-68
2023/04/07 13:59:26;;;;;;;;;;;17.60;63.40;;;;;;5074521;28;1029;-68
2023/04/07 14:01:51;;;;;;;;;;;17.60;63.30;;;;;;5075363;28;867;-68
2023/04/07 14:04:17;;;;;;;;;;;17.60;63.30;;;;;;5077628;28;907;-68
2023/04/07 14:06:42;;;;;;;;;;;17.60;64.00;;;;;;5071438;28;1350;-68
2023/04/07 14:09:08;;;;;;;;;;;17.60;63.30;;;;;;5074712;28;2337;-68
2023/04/07 14:11:33;;;;;;;;;;;17.60;63.20;;;;;;5057157;28;1353;-68
2023/04/07 14:13:59;;;;;;;;;;;17.60;63.20;;;;;;5073717;28;836;-68
2023/04/07 14:16:24;;;;;;;;;;;17.60;63.20;;;;;;5076439;28;1263;-67
2023/04/07 14:18:50;;;;;;;;;;;17.60;63.10;;;;;;5066127;28;1630;-68
2023/04/07 14:21:16;;;;;;;;;;;17.60;63.10;;;;;;5068125;28;1348;-68
2023/04/07 14:23:41;;;;;;;;;;;17.60;63.10;;;;;;5074924;28;1250;-67
2023/04/07 14:26:10;;;;;;;;;;;17.60;63.10;;;;;;5073813;28;1326;-67
2023/04/07 14:28:36;;;;;;;;;;;17.60;63.10;;;;;;5065244;28;1905;-68